Time;durP1;ratioP1;P1;durP2;ratioP2;P2;SDS_P1;SDS_P2;PMS_P1;PMS_P2;Temp;Humidity;BMP_temperature;BMP_pressure;BME280_temperature;BME280_humidity;BME280_pressure;Samples;Min_cycle;Max_cycle;Signal;HPM_P1;HPM_P2
2023/01/29 00:00:11;;;;;;;20.95;12.45;;;;;;;-146.25;94.30;52453.34;2096411;28;42620;-71
2023/01/29 00:01:15;;;;;;;19.38;11.80;;;;;;;-146.25;94.16;52461.47;2097679;28;20025;-71
2023/01/29 00:02:17;;;;;;;17.27;11.43;;;;;;;-146.25;94.10;52465.53;2110993;22;40812;-69
2023/01/29 00:03:20;;;;;;;20.17;11.88;;;;;;;-146.25;94.61;52465.53;2090071;28;20144;-70
2023/01/29 00:04:22;;;;;;;19.40;11.40;;;;;;;-146.25;94.23;52445.25;2088159;28;20216;-69
2023/01/29 00:05:24;;;;;;;19.20;12.27;;;;;;;-146.25;93.85;52475.66;2096588;28;40852;-69
2023/01/29 00:06:29;;;;;;;19.42;12.18;;;;;;;-146.25;94.64;52453.34;2096451;28;38101;-70
2023/01/29 00:07:33;;;;;;;18.83;11.98;;;;;;;-146.25;94.33;52473.63;2097146;28;20041;-70
2023/01/29 00:08:36;;;;;;;18.27;12.27;;;;;;;-146.25;93.74;52461.47;2096247;28;41391;-70
2023/01/29 00:09:39;;;;;;;19.25;12.02;;;;;;;-146.25;93.99;52437.13;2096618;28;37646;-70
2023/01/29 00:10:40;;;;;;;18.92;11.63;;;;;;;-146.25;93.32;52489.84;2096350;28;35102;-69
2023/01/29 00:11:44;;;;;;;20.27;11.60;;;;;;;-146.25;93.74;52497.97;2096301;28;39053;-70
2023/01/29 00:12:46;;;;;;;21.10;12.70;;;;;;;-146.25;93.59;52451.31;2096219;28;37007;-70
2023/01/29 00:13:48;;;;;;;20.13;11.80;;;;;;;-146.25;92.92;52463.50;2096605;28;40788;-70
2023/01/29 00:14:53;;;;;;;20.25;12.07;;;;;;;-146.25;93.16;52469.56;2096227;28;39334;-69
2023/01/29 00:15:57;;;;;;;20.35;12.25;;;;;;;-146.25;92.79;52479.72;2096345;28;36711;-70
2023/01/29 00:16:59;;;;;;;18.08;11.43;;;;;;;-146.25;93.13;52493.91;2096397;28;39437;-69
2023/01/29 00:18:01;;;;;;;18.27;11.82;;;;;;;-146.25;93.18;52489.84;2097057;28;20041;-70
2023/01/29 00:19:03;;;;;;;21.65;12.43;;;;;;;-146.25;93.18;52427.00;2096564;28;33738;-70
2023/01/29 00:20:05;;;;;;;17.58;11.27;;;;;;;-146.25;93.16;52445.25;2088075;28;38158;-70
2023/01/29 00:21:16;;;;;;;22.58;12.43;;;;;;;-146.25;92.57;52461.47;2079367;28;38109;-70
2023/01/29 00:22:18;;;;;;;19.83;11.68;;;;;;;-146.25;93.08;52477.69;2080992;28;41639;-70
2023/01/29 00:23:20;;;;;;;19.98;12.23;;;;;;;-146.25;92.77;52459.44;2088634;28;24255;-70
2023/01/29 00:24:22;;;;;;;20.17;12.60;;;;;;;-146.25;92.18;52473.63;2095814;28;42547;-70
2023/01/29 00:25:26;;;;;;;20.67;12.02;;;;;;;-146.25;92.41;52477.69;2096706;28;35824;-70
2023/01/29 00:26:28;;;;;;;19.83;12.82;;;;;;;-146.25;92.42;52502.03;2096996;28;20052;-69
2023/01/29 00:27:29;;;;;;;18.63;12.15;;;;;;;-146.25;92.68;52471.59;2096513;28;39154;-69
2023/01/29 00:28:31;;;;;;;18.70;12.35;;;;;;;-146.25;92.36;52429.03;2095736;28;31091;-70
2023/01/29 00:29:34;;;;;;;19.45;12.30;;;;;;;-146.25;92.55;52475.66;2096710;28;20976;-70
2023/01/29 00:30:36;;;;;;;18.92;13.00;;;;;;;-146.25;91.69;52477.69;2096813;28;30174;-69
2023/01/29 00:31:38;;;;;;;17.88;11.88;;;;;;;-146.25;92.38;52447.28;2096703;28;34808;-70
2023/01/29 00:32:41;;;;;;;18.77;12.23;;;;;;;-146.25;92.30;52447.28;2098361;28;20176;-69
2023/01/29 00:33:43;;;;;;;18.77;12.13;;;;;;;-146.25;92.40;52465.53;2098859;28;28408;-69
2023/01/29 00:34:45;;;;;;;20.65;12.32;;;;;;;-146.25;91.59;52483.78;2097132;28;20164;-69
2023/01/29 00:35:50;;;;;;;19.63;11.57;;;;;;;-146.25;91.98;52481.75;2097309;28;20084;-69
2023/01/29 00:37:05;;;;;;;19.05;12.43;;;;;;;-146.25;91.77;52481.75;2095196;28;39731;-69
2023/01/29 00:38:07;;;;;;;19.98;11.95;;;;;;;-146.25;92.00;52431.06;2096672;28;30983;-69
2023/01/29 00:39:11;;;;;;;21.40;13.15;;;;;;;-146.25;91.83;52489.84;2087420;28;35581;-70
2023/01/29 00:40:13;;;;;;;19.63;12.13;;;;;;;-146.25;91.33;52481.75;2080456;28;20792;-70
2023/01/29 00:45:17;;;;;;;19.35;12.65;;;;;;;-146.25;90.77;52453.34;2097196;28;20111;-69
2023/01/29 00:46:19;;;;;;;21.35;12.40;;;;;;;-146.25;90.98;52433.06;2088127;28;20045;-70
2023/01/29 00:47:30;;;;;;;21.02;12.93;;;;;;;-146.25;90.90;52465.53;2079261;28;21506;-69
2023/01/29 00:48:33;;;;;;;17.65;11.98;;;;;;;-146.25;90.79;52489.84;2081341;28;20960;-69
2023/01/29 00:49:37;;;;;;;21.70;12.75;;;;;;;-146.25;90.76;52445.25;2079550;28;21129;-70
2023/01/29 00:50:41;;;;;;;19.05;12.27;;;;;;;-146.25;91.00;52471.59;2087916;28;36658;-69
2023/01/29 00:51:43;;;;;;;18.33;12.07;;;;;;;-146.25;90.95;52477.69;2087512;28;20123;-69
2023/01/29 00:52:44;;;;;;;19.90;12.48;;;;;;;-146.25;90.53;52443.22;2087360;28;40894;-70
2023/01/29 00:53:46;;;;;;;20.77;13.25;;;;;;;-146.25;90.77;52445.25;2096167;28;37418;-70
2023/01/29 00:54:48;;;;;;;20.98;12.60;;;;;;;-146.25;90.42;52453.34;2096860;28;31119;-69
2023/01/29 00:55:52;;;;;;;18.85;12.50;;;;;;;-146.25;90.54;52467.56;2087632;28;24517;-70
2023/01/29 00:56:53;;;;;;;17.92;12.05;;;;;;;-146.25;90.56;52469.56;2088585;28;20045;-70
2023/01/29 00:57:55;;;;;;;20.65;12.63;;;;;;;-146.25;90.94;52477.69;2096730;28;24892;-70
2023/01/29 00:58:57;;;;;;;19.83;12.75;;;;;;;-146.25;90.80;52471.59;2096693;28;29913;-69
2023/01/29 01:00:01;;;;;;;19.25;12.27;;;;;;;-146.25;90.65;52479.72;2087699;28;24162;-70
2023/01/29 01:01:03;;;;;;;20.48;12.52;;;;;;;-146.25;91.18;52457.41;2079425;28;30896;-67
2023/01/29 01:03:25;;;;;;;20.10;12.73;;;;;;;-146.25;90.74;52459.44;2081579;28;37723;-70
2023/01/29 01:04:26;;;;;;;20.85;13.10;;;;;;;-146.25;90.15;52465.53;2079234;28;30551;-69
2023/01/29 01:05:28;;;;;;;21.90;13.18;;;;;;;-146.25;90.15;52437.13;2079000;28;32120;-69
2023/01/29 01:06:31;;;;;;;19.05;13.25;;;;;;;-146.25;90.79;52449.31;2088418;28;20081;-71
2023/01/29 01:07:33;;;;;;;21.63;13.70;;;;;;;-146.25;90.67;52459.44;2087543;28;29830;-69
2023/01/29 01:11:16;;;;;;;;;;;;;;;-146.25;90.51;52469.56;2087501;28;34258;-70
2023/01/29 01:12:18;;;;;;;19.77;12.18;;;;;;;-146.25;90.29;52416.84;2087358;28;39194;-69
2023/01/29 01:13:20;;;;;;;19.33;12.23;;;;;;;-146.25;90.04;52435.09;2078888;28;36031;-70
2023/01/29 01:14:21;;;;;;;19.20;12.07;;;;;;;-146.25;90.41;52473.63;2087232;28;31810;-69
2023/01/29 01:15:31;;;;;;;18.40;12.48;;;;;;;-146.25;90.70;52481.75;2096496;28;33424;-70
2023/01/29 01:16:33;;;;;;;19.40;12.95;;;;;;;-146.25;90.71;52506.06;2096170;28;35039;-70
2023/01/29 01:17:35;;;;;;;20.00;12.20;;;;;;;-146.25;90.41;52453.34;2087735;28;28883;-69
2023/01/29 01:18:37;;;;;;;18.08;12.57;;;;;;;-146.25;90.02;52457.41;2079811;28;20034;-70
2023/01/29 01:19:39;;;;;;;22.42;13.82;;;;;;;-146.25;90.59;52457.41;2079713;28;20049;-69
2023/01/29 01:20:41;;;;;;;19.00;12.50;;;;;;;-146.25;90.35;52469.56;2087864;28;20044;-70
2023/01/29 01:21:44;;;;;;;17.30;11.80;;;;;;;-146.25;89.95;52461.47;2096008;28;32378;-69
2023/01/29 01:22:46;;;;;;;16.88;11.68;;;;;;;-146.25;90.00;52471.59;2095620;28;30917;-69
2023/01/29 01:23:50;;;;;;;18.92;11.75;;;;;;;-146.25;89.63;52467.56;2088003;28;20860;-70
2023/01/29 01:24:52;;;;;;;18.85;12.57;;;;;;;-146.25;90.42;52467.56;2079387;28;36882;-70
2023/01/29 01:25:54;;;;;;;18.67;11.90;;;;;;;-146.25;90.16;52467.56;2080245;28;28397;-69
2023/01/29 01:26:55;;;;;;;19.60;12.15;;;;;;;-146.25;89.74;52422.94;2079531;28;20887;-69
2023/01/29 01:27:59;;;;;;;20.63;13.07;;;;;;;-146.25;90.30;52457.41;2079577;28;20058;-70
2023/01/29 01:29:04;;;;;;;16.50;11.25;;;;;;;-146.25;89.76;52465.53;2080374;28;26774;-69
2023/01/29 01:30:14;;;;;;;20.02;12.63;;;;;;;-146.25;90.00;52465.53;2088402;28;30996;-69
2023/01/29 01:31:17;;;;;;;21.05;12.73;;;;;;;-146.25;90.23;52445.25;2095212;28;36083;-69
2023/01/29 01:32:19;;;;;;;20.58;13.23;;;;;;;-146.25;90.03;52483.78;2095953;28;29033;-69
2023/01/29 01:33:21;;;;;;;20.83;12.70;;;;;;;-146.25;89.93;52485.81;2095670;28;40093;-70
2023/01/29 01:34:22;;;;;;;18.80;12.52;;;;;;;-146.25;90.50;52481.75;2096844;28;20040;-69
2023/01/29 01:35:24;;;;;;;22.90;12.93;;;;;;;-146.25;90.37;52483.78;2087407;28;32032;-70
2023/01/29 01:36:28;;;;;;;20.95;13.15;;;;;;;-146.25;90.15;52483.78;2087651;28;31854;-69
2023/01/29 01:37:30;;;;;;;21.27;12.68;;;;;;;-146.25;90.36;52463.50;2096543;28;23062;-70
2023/01/29 01:38:32;;;;;;;19.55;12.45;;;;;;;-146.25;89.89;52473.63;2096585;28;30412;-70
2023/01/29 01:39:33;;;;;;;20.25;12.13;;;;;;;-146.25;89.71;52445.25;2087095;28;29022;-70
2023/01/29 01:40:35;;;;;;;20.70;12.82;;;;;;;-146.25;90.04;52479.72;2079184;28;35407;-70
2023/01/29 01:41:37;;;;;;;18.63;12.27;;;;;;;-146.25;89.80;52465.53;2088000;28;20049;-69
2023/01/29 01:42:54;;;;;;;19.45;12.65;;;;;;;-146.25;90.46;52449.31;2087878;28;20144;-70
2023/01/29 01:44:02;;;;;;;22.70;12.93;;;;;;;-146.25;89.71;52473.63;2089660;28;30475;-69
2023/01/29 01:45:16;;;;;;;20.13;12.10;;;;;;;-146.25;89.54;52459.44;2096612;28;31507;-70
2023/01/29 01:46:18;;;;;;;18.83;12.80;;;;;;;-146.25;89.82;52451.31;2095953;28;20053;-70
2023/01/29 01:47:49;;;;;;;20.55;12.77;;;;;;;-146.25;90.25;52445.25;2087654;28;20887;-70
2023/01/29 01:49:05;;;;;;;17.05;11.18;;;;;;;-146.25;89.89;52485.81;2075147;28;20058;-70
2023/01/29 01:50:23;;;;;;;20.85;13.00;;;;;;;-146.25;90.30;52514.19;2084382;28;26688;-69
2023/01/29 01:51:27;;;;;;;21.58;12.55;;;;;;;-146.25;90.06;52483.78;2082384;28;35768;-70
2023/01/29 01:52:31;;;;;;;18.55;11.55;;;;;;;-146.25;90.05;52455.38;2089990;28;29489;-70
2023/01/29 01:53:43;;;;;;;19.27;13.10;;;;;;;-146.25;89.97;52424.97;2095266;28;41611;-70
2023/01/29 01:54:46;;;;;;;21.77;12.32;;;;;;;-146.25;89.80;52455.38;2087497;28;25962;-70
2023/01/29 01:55:55;;;;;;;20.25;12.70;;;;;;;-146.25;89.74;52465.53;2080367;28;20046;-70
2023/01/29 01:57:15;;;;;;;21.73;13.00;;;;;;;-146.25;90.30;52459.44;2071897;28;20800;-70
2023/01/29 01:58:29;;;;;;;19.65;12.45;;;;;;;-146.25;90.01;52459.44;2086556;28;20924;-70
2023/01/29 01:59:32;;;;;;;22.70;12.32;;;;;;;-146.25;90.50;52483.78;2095829;28;20048;-70
2023/01/29 02:00:34;;;;;;;22.63;13.55;;;;;;;-146.25;89.67;52463.50;2087459;28;20170;-70
2023/01/29 02:01:39;;;;;;;19.60;12.15;;;;;;;-146.25;90.28;52408.75;2086832;28;36632;-70
2023/01/29 02:10:13;;;;;;;18.17;11.95;;;;;;;-146.25;90.29;52473.63;2078655;28;20042;-70
2023/01/29 02:11:16;;;;;;;18.88;11.98;;;;;;;-146.25;91.04;52483.78;2090150;28;20029;-70
2023/01/29 02:12:19;;;;;;;19.90;12.63;;;;;;;-146.25;91.23;52449.31;2087499;28;20883;-69
2023/01/29 02:13:22;;;;;;;20.50;13.38;;;;;;;-146.25;91.10;52483.78;2079608;28;20128;-70
2023/01/29 02:14:24;;;;;;;20.27;12.07;;;;;;;-146.25;91.29;52473.63;2087060;28;42427;-70
2023/01/29 02:15:26;;;;;;;21.67;13.73;;;;;;;-146.25;91.05;52469.56;2086922;28;29864;-70
2023/01/29 02:16:34;;;;;;;21.52;13.63;;;;;;;-146.25;91.25;52477.69;2087150;28;38689;-70
2023/01/29 02:17:37;;;;;;;20.73;12.88;;;;;;;-146.25;90.84;52473.63;2088572;28;20160;-70
2023/01/29 02:18:42;;;;;;;19.83;12.90;;;;;;;-146.25;91.44;52457.41;2081613;28;36268;-70
2023/01/29 02:20:09;;;;;;;22.20;14.35;;;;;;;-146.25;91.59;52437.13;2077529;28;33264;-70
2023/01/29 02:21:36;;;;;;;20.77;13.07;;;;;;;-146.25;91.26;52433.06;2075151;28;38094;-70
2023/01/29 02:22:54;;;;;;;23.48;13.57;;;;;;;-146.25;91.50;52447.28;2090047;28;36986;-70
2023/01/29 02:24:34;;;;;;;20.80;13.60;;;;;;;-146.25;91.57;52473.63;2097024;28;20866;-70
2023/01/29 02:26:19;;;;;;;22.98;12.75;;;;;;;-146.25;91.09;52463.50;2097369;28;28490;-70
2023/01/29 02:27:40;;;;;;;20.00;12.52;;;;;;;-146.25;91.21;52447.28;2097622;28;27187;-70
2023/01/29 02:29:21;;;;;;;23.35;13.43;;;;;;;-146.25;91.36;52427.00;2088266;28;37027;-70
2023/01/29 02:30:39;;;;;;;18.65;12.38;;;;;;;-146.25;91.50;52445.25;2089009;28;20041;-70
2023/01/29 02:31:50;;;;;;;23.52;13.52;;;;;;;-146.25;91.15;52487.81;2095893;28;31581;-70
2023/01/29 02:33:34;;;;;;;20.02;13.20;;;;;;;-146.25;91.47;52489.84;2097256;28;20087;-71
2023/01/29 02:36:50;;;;;;;23.27;13.70;;;;;;;-146.25;90.79;52469.56;2088811;28;20152;-70
2023/01/29 02:38:11;;;;;;;21.80;13.65;;;;;;;-146.25;91.49;52437.13;2091656;28;25890;-70
2023/01/29 02:39:36;;;;;;;23.52;14.00;;;;;;;-146.25;91.41;52435.09;2097990;28;20051;-70
2023/01/29 02:41:19;;;;;;;23.95;13.65;;;;;;;-146.25;90.74;52473.63;2088974;28;21337;-70
2023/01/29 02:42:37;;;;;;;20.90;13.27;;;;;;;-146.25;91.49;52451.31;2086317;28;20867;-70
2023/01/29 02:43:54;;;;;;;19.90;13.60;;;;;;;-146.25;90.92;52469.56;2074080;28;41680;-70
2023/01/29 02:45:16;;;;;;;23.08;14.18;;;;;;;-146.25;90.96;52465.53;2078570;28;20042;-70
2023/01/29 02:46:21;;;;;;;24.25;15.15;;;;;;;-146.25;91.38;52489.84;2083015;28;32822;-70
2023/01/29 02:47:40;;;;;;;22.77;14.30;;;;;;;-146.25;91.37;52445.25;2089966;28;30889;-70
2023/01/29 02:49:08;;;;;;;20.13;12.73;;;;;;;-146.25;90.91;52465.53;2088900;28;20100;-70
2023/01/29 02:50:09;;;;;;;22.02;14.60;;;;;;;-146.25;91.25;52489.84;2083075;28;38851;-70
2023/01/29 02:51:33;;;;;;;20.92;13.75;;;;;;;-146.25;91.21;52471.59;2090483;28;37030;-70
2023/01/29 02:52:43;;;;;;;24.85;15.23;;;;;;;-146.25;91.13;52471.59;2088191;28;39813;-70
2023/01/29 02:53:55;;;;;;;;;;;;;;;-146.25;91.37;52483.78;2083786;28;36686;-70
2023/01/29 02:55:16;;;;;;;22.02;13.20;;;;;;;-146.25;91.05;52473.63;2089962;28;37907;-70
2023/01/29 02:56:30;;;;;;;26.02;14.88;;;;;;;-146.25;91.08;52489.84;2088114;28;27873;-70
2023/01/29 02:57:39;;;;;;;23.33;14.55;;;;;;;-146.25;91.22;52469.56;2090516;28;30729;-70
2023/01/29 02:58:46;;;;;;;26.05;14.98;;;;;;;-146.25;90.81;52408.75;2088670;28;20042;-71
2023/01/29 03:00:33;;;;;;;23.52;15.10;;;;;;;-146.25;91.06;52455.38;2073865;28;20042;-70
2023/01/29 03:01:46;;;;;;;23.65;14.20;;;;;;;-146.25;91.17;52461.47;2068700;28;20043;-70
2023/01/29 03:03:05;;;;;;;23.73;15.02;;;;;;;-146.25;90.84;52477.69;2057236;28;20046;-70
2023/01/29 03:04:12;;;;;;;25.98;15.48;;;;;;;-146.25;90.41;52481.75;2083134;28;20906;-70
2023/01/29 03:05:24;;;;;;;24.25;15.30;;;;;;;-146.25;91.35;52500.00;2079748;28;43043;-70
2023/01/29 03:06:36;;;;;;;25.23;15.35;;;;;;;-146.25;90.89;52487.81;2082125;28;38042;-70
2023/01/29 03:08:03;;;;;;;24.92;15.18;;;;;;;-146.25;90.51;52469.56;2082609;28;29920;-70
2023/01/29 03:09:21;;;;;;;23.75;14.77;;;;;;;-146.25;91.32;52447.28;2085575;28;20179;-70
2023/01/29 03:10:29;;;;;;;25.02;15.13;;;;;;;-146.25;90.97;52471.59;2082763;28;20180;-70
2023/01/29 03:11:40;;;;;;;23.67;14.77;;;;;;;-146.25;91.19;52445.25;2072895;28;20892;-70
2023/01/29 03:12:49;;;;;;;22.02;13.82;;;;;;;-146.25;90.95;52429.03;2074876;28;34897;-70
2023/01/29 03:13:58;;;;;;;22.83;15.70;;;;;;;-146.25;90.76;52420.91;2082688;28;20049;-70
2023/01/29 03:15:12;;;;;;;26.25;15.93;;;;;;;-146.25;91.02;52473.63;2088920;28;20049;-70
2023/01/29 03:16:38;;;;;;;26.58;15.50;;;;;;;-146.25;91.55;52469.56;2082672;28;20051;-71
2023/01/29 03:17:52;;;;;;;26.05;16.15;;;;;;;-146.25;91.18;52447.28;2087848;28;35697;-71
2023/01/29 03:19:07;;;;;;;22.42;14.40;;;;;;;-146.25;91.17;52455.38;2080285;28;20919;-71
2023/01/29 03:20:16;;;;;;;25.48;15.48;;;;;;;-146.25;90.82;52455.38;2076431;28;20042;-71
2023/01/29 03:23:26;;;;;;;23.92;14.60;;;;;;;-146.25;91.44;52453.34;2054439;28;40040;-71
2023/01/29 03:32:28;;;;;;;25.42;15.20;;;;;;;-146.25;91.87;52457.41;2063306;28;19932;-70
2023/01/29 03:33:44;;;;;;;25.27;16.80;;;;;;;-146.25;91.67;52481.75;2064045;28;20090;-70
2023/01/29 03:34:56;;;;;;;24.85;16.30;;;;;;;-146.25;91.24;52473.63;2063479;28;27618;-71
2023/01/29 03:36:10;;;;;;;23.83;15.60;;;;;;;-146.25;91.56;52469.56;2080176;28;20053;-70
2023/01/29 03:37:45;;;;;;;27.42;17.40;;;;;;;-146.25;91.29;52477.69;2074919;28;20046;-71
2023/01/29 03:38:47;;;;;;;27.20;16.08;;;;;;;-146.25;91.38;52481.75;2081887;28;20045;-70
2023/01/29 03:39:49;;;;;;;27.75;17.23;;;;;;;-146.25;91.59;52463.50;2080175;28;20046;-71
2023/01/29 03:41:02;;;;;;;27.95;18.02;;;;;;;-146.25;91.46;52477.69;2079827;28;20899;-71
2023/01/29 03:42:19;;;;;;;30.20;18.35;;;;;;;-146.25;92.08;52455.38;2081199;28;20046;-70
2023/01/29 03:44:05;;;;;;;29.83;17.63;;;;;;;-146.25;91.92;52477.69;2090513;28;23203;-70
2023/01/29 03:45:37;;;;;;;29.13;17.80;;;;;;;-146.25;91.87;52443.22;2072280;28;20046;-70
2023/01/29 03:47:13;;;;;;;29.20;17.95;;;;;;;-146.25;91.82;52447.28;2072407;28;20042;-70
2023/01/29 03:48:36;;;;;;;30.55;17.42;;;;;;;-146.25;92.03;52477.69;2083938;28;20042;-70
2023/01/29 03:50:01;;;;;;;28.35;16.83;;;;;;;-146.25;92.03;52485.81;2083030;28;20196;-70
2023/01/29 03:51:40;;;;;;;28.85;18.27;;;;;;;-146.25;92.24;52475.66;2083120;28;20038;-70
2023/01/29 03:52:50;;;;;;;30.23;18.13;;;;;;;-146.25;91.61;52467.56;2085089;28;20041;-70
2023/01/29 03:54:17;;;;;;;32.00;18.58;;;;;;;-146.25;92.05;52453.34;2089324;28;28357;-70
2023/01/29 03:55:32;;;;;;;31.08;17.95;;;;;;;-146.25;92.36;52491.88;2087577;28;29197;-70
2023/01/29 03:57:01;;;;;;;29.90;19.42;;;;;;;-146.25;91.75;52449.31;2082451;28;20038;-70
2023/01/29 03:58:59;;;;;;;27.77;18.45;;;;;;;-146.25;91.87;52453.34;2075710;28;20049;-71
2023/01/29 04:00:21;;;;;;;31.08;19.30;;;;;;;-146.25;92.27;52431.06;2080083;28;20053;-70
2023/01/29 04:01:56;;;;;;;27.80;18.00;;;;;;;-146.25;92.21;52429.03;2081847;28;20042;-71
2023/01/29 04:03:21;;;;;;;29.33;19.25;;;;;;;-146.25;92.03;52453.34;2083500;28;20044;-70
2023/01/29 04:04:35;;;;;;;27.83;18.58;;;;;;;-146.25;91.92;52481.75;2082865;28;20168;-70
2023/01/29 04:05:48;;;;;;;30.77;18.70;;;;;;;-146.25;92.55;52453.34;2081521;28;20341;-71
2023/01/29 04:07:17;;;;;;;28.85;18.73;;;;;;;-146.25;91.56;52518.25;2074162;28;20043;-70
2023/01/29 04:08:30;;;;;;;29.77;17.52;;;;;;;-146.25;92.00;52461.47;2071897;28;20880;-71
2023/01/29 04:09:44;;;;;;;30.23;19.55;;;;;;;-146.25;92.08;52489.84;2077936;28;20101;-70
2023/01/29 04:10:48;;;;;;;30.38;19.08;;;;;;;-146.25;91.79;52455.38;2075024;28;20046;-70
2023/01/29 04:12:08;;;;;;;30.50;19.02;;;;;;;-146.25;91.62;52412.81;2065127;28;23942;-70
2023/01/29 04:13:16;;;;;;;32.42;18.63;;;;;;;-146.25;91.79;52471.59;2070038;28;20045;-70
2023/01/29 04:14:20;;;;;;;30.02;18.65;;;;;;;-146.25;92.13;52485.81;2075894;28;20185;-70
2023/01/29 04:15:27;;;;;;;30.67;18.83;;;;;;;-146.25;92.21;52465.53;2080052;28;21037;-70
2023/01/29 04:16:40;;;;;;;32.35;19.85;;;;;;;-146.25;92.17;52483.78;2072164;28;20050;-71
2023/01/29 04:17:54;;;;;;;27.33;17.48;;;;;;;-146.25;91.64;52457.41;2074517;28;20049;-70
2023/01/29 04:19:08;;;;;;;29.08;18.45;;;;;;;-146.25;91.91;52439.16;2079686;28;20042;-70
2023/01/29 04:20:14;;;;;;;30.25;19.25;;;;;;;-146.25;91.46;52463.50;2066476;28;20042;-70
2023/01/29 04:21:18;;;;;;;30.00;19.52;;;;;;;-146.25;91.77;52457.41;2072772;28;20046;-71
2023/01/29 04:22:34;;;;;;;29.77;19.10;;;;;;;-146.25;91.96;52439.16;2072173;28;20908;-70
2023/01/29 04:23:38;;;;;;;25.73;17.27;;;;;;;-146.25;91.66;52477.69;2075910;28;20038;-70
2023/01/29 04:24:41;;;;;;;31.42;20.30;;;;;;;-146.25;91.81;52493.91;2088649;28;20131;-70
2023/01/29 04:25:52;;;;;;;28.80;19.15;;;;;;;-146.25;91.67;52463.50;2087976;28;20172;-70
2023/01/29 04:27:04;;;;;;;;;;;;;;;-146.25;91.18;52461.47;2073587;28;20043;-70
2023/01/29 04:28:21;;;;;;;29.55;18.20;;;;;;;-146.25;91.16;52493.91;2075837;28;19921;-69
2023/01/29 04:29:56;;;;;;;30.88;19.33;;;;;;;-146.25;91.34;52467.56;2090336;28;20026;-70
2023/01/29 04:31:10;;;;;;;29.52;18.92;;;;;;;-146.25;91.60;52443.22;2087551;28;20057;-70
2023/01/29 04:32:32;;;;;;;31.20;19.40;;;;;;;-146.25;91.33;52439.16;2081558;28;20115;-70
2023/01/29 04:34:08;;;;;;;28.05;17.85;;;;;;;-146.25;91.24;52437.13;2083906;28;20045;-70
2023/01/29 04:35:49;;;;;;;28.55;17.92;;;;;;;-146.25;91.51;52441.19;2076275;28;20803;-70
2023/01/29 04:37:11;;;;;;;26.42;17.60;;;;;;;-146.25;91.59;52479.72;2088015;28;20045;-71
2023/01/29 04:38:33;;;;;;;28.13;18.40;;;;;;;-146.25;91.28;52455.38;2082623;28;20906;-70
2023/01/29 04:39:46;;;;;;;32.50;19.33;;;;;;;-146.25;91.72;52445.25;2090314;28;37634;-70
2023/01/29 04:41:10;;;;;;;29.27;18.10;;;;;;;-146.25;91.46;52483.78;2097031;28;20041;-70
2023/01/29 04:42:55;;;;;;;27.75;18.23;;;;;;;-146.25;91.54;52481.75;2096981;28;20041;-70
2023/01/29 04:44:20;;;;;;;30.02;18.65;;;;;;;-146.25;91.30;52429.03;2093720;28;34986;-70
2023/01/29 04:45:46;;;;;;;29.02;18.23;;;;;;;-146.25;91.49;52453.34;2087054;28;40839;-70
2023/01/29 04:47:30;;;;;;;30.08;18.80;;;;;;;-146.25;91.53;52457.41;2093564;28;35786;-71
2023/01/29 04:49:26;;;;;;;31.83;19.52;;;;;;;-146.25;91.40;52457.41;2066062;28;40408;-72
2023/01/29 04:50:37;;;;;;;28.15;18.00;;;;;;;-146.25;91.53;52473.63;2085381;28;35294;-70
2023/01/29 04:52:06;;;;;;;31.55;19.63;;;;;;;-146.25;91.41;52465.53;2096203;28;38429;-70
2023/01/29 04:53:36;;;;;;;29.60;18.88;;;;;;;-146.25;91.58;52481.75;2096039;28;42649;-70
2023/01/29 04:55:00;;;;;;;29.83;19.25;;;;;;;-146.25;91.16;52477.69;2097302;28;20037;-70
2023/01/29 04:56:29;;;;;;;30.83;20.10;;;;;;;-146.25;91.43;52453.34;2096124;28;41937;-70
2023/01/29 04:57:57;;;;;;;29.10;18.73;;;;;;;-146.25;91.10;52445.25;2087486;28;40551;-70
2023/01/29 04:59:08;;;;;;;32.65;21.08;;;;;;;-146.25;91.03;52449.31;2093108;28;41507;-70
2023/01/29 05:00:26;;;;;;;30.70;19.77;;;;;;;-146.25;91.85;52497.97;2096183;28;39871;-69
2023/01/29 05:01:32;;;;;;;29.10;18.83;;;;;;;-146.25;91.11;52473.63;2096057;28;38990;-70
2023/01/29 05:02:38;;;;;;;30.17;20.08;;;;;;;-146.25;91.90;52422.94;2087188;28;35485;-71
2023/01/29 05:03:45;;;;;;;28.55;18.70;;;;;;;-146.25;91.31;52445.25;2080609;28;44787;-70
2023/01/29 05:04:48;;;;;;;33.50;21.05;;;;;;;-146.25;91.60;52459.44;2081056;28;25970;-70
2023/01/29 05:05:54;;;;;;;31.33;19.38;;;;;;;-146.25;91.77;52479.72;2081030;28;20716;-70
2023/01/29 05:07:00;;;;;;;31.20;20.60;;;;;;;-146.25;91.14;52461.47;2079988;28;41954;-70
2023/01/29 05:08:04;;;;;;;31.58;19.67;;;;;;;-146.25;92.03;52485.81;2088514;28;37625;-70
2023/01/29 05:09:08;;;;;;;29.73;19.95;;;;;;;-146.25;91.60;52447.28;2088252;28;20914;-70
2023/01/29 05:10:12;;;;;;;33.42;21.48;;;;;;;-146.25;91.66;52451.31;2079996;28;40435;-70
2023/01/29 05:11:17;;;;;;;32.65;21.25;;;;;;;-146.25;91.74;52485.81;2080250;28;21040;-71
2023/01/29 05:12:21;;;;;;;31.73;21.05;;;;;;;-146.25;91.63;52435.09;2079409;28;40788;-71
2023/01/29 05:13:28;;;;;;;31.50;20.92;;;;;;;-146.25;91.90;52491.88;2079646;28;35655;-70
2023/01/29 05:14:34;;;;;;;32.13;21.45;;;;;;;-146.25;91.75;52459.44;2088561;28;40897;-70
2023/01/29 05:15:45;;;;;;;32.33;21.02;;;;;;;-146.25;92.33;52483.78;2096143;28;40250;-71
2023/01/29 05:16:52;;;;;;;31.35;20.42;;;;;;;-146.25;91.52;52471.59;2087947;28;20072;-71
2023/01/29 05:18:00;;;;;;;33.70;21.63;;;;;;;-146.25;92.08;52459.44;2089082;28;40362;-70
2023/01/29 05:19:02;;;;;;;33.33;21.33;;;;;;;-146.25;92.30;52453.34;2096364;28;35314;-70
2023/01/29 05:20:04;;;;;;;32.22;21.27;;;;;;;-146.25;92.05;52489.84;2087034;28;37232;-70
2023/01/29 05:21:08;;;;;;;33.05;22.55;;;;;;;-146.25;92.53;52504.03;2079132;28;40414;-70
2023/01/29 05:22:14;;;;;;;32.97;21.52;;;;;;;-146.25;92.39;52469.56;2079555;28;40096;-70
2023/01/29 05:23:19;;;;;;;35.42;21.45;;;;;;;-146.25;92.64;52506.06;2079973;28;38849;-70
2023/01/29 05:24:24;;;;;;;34.15;22.25;;;;;;;-146.25;93.31;52475.66;2079982;28;37089;-70
2023/01/29 05:25:29;;;;;;;36.10;21.55;;;;;;;-146.25;93.30;52441.19;2088256;28;37162;-71
2023/01/29 05:28:04;;;;;;;31.00;20.20;;;;;;;-146.25;93.89;52443.22;2091987;28;20032;-70
2023/01/29 05:29:08;;;;;;;35.08;21.85;;;;;;;-146.25;93.82;52469.56;2096134;28;38155;-70
2023/01/29 05:30:10;;;;;;;31.80;20.75;;;;;;;-146.25;94.23;52453.34;2096155;28;34423;-70
2023/01/29 05:31:12;;;;;;;33.10;22.13;;;;;;;-146.25;94.58;52465.53;2095906;28;36081;-71
2023/01/29 05:32:15;;;;;;;35.85;23.77;;;;;;;-146.25;95.11;52473.63;2095997;28;41246;-70
2023/01/29 05:33:25;;;;;;;34.53;23.63;;;;;;;-146.25;94.78;52453.34;2096291;28;37543;-70
2023/01/29 05:34:27;;;;;;;37.72;24.38;;;;;;;-146.25;95.14;52455.38;2087187;28;40935;-70
2023/01/29 05:35:31;;;;;;;38.03;24.65;;;;;;;-146.25;95.63;52445.25;2088077;28;38726;-71
2023/01/29 05:36:33;;;;;;;41.90;24.42;;;;;;;-146.25;96.10;52471.59;2096464;28;20763;-70
2023/01/29 05:37:35;;;;;;;37.20;24.60;;;;;;;-146.25;96.33;52481.75;2096074;28;34558;-70
2023/01/29 05:38:37;;;;;;;38.38;25.83;;;;;;;-146.25;96.99;52453.34;2096352;28;35139;-70
2023/01/29 05:39:38;;;;;;;36.75;23.48;;;;;;;-146.25;96.53;52439.16;2095749;28;36521;-70
2023/01/29 05:40:41;;;;;;;37.80;24.65;;;;;;;-146.25;96.48;52461.47;2096127;28;41371;-70
2023/01/29 05:41:43;;;;;;;37.72;25.17;;;;;;;-146.25;96.83;52441.19;2087190;28;36346;-70
2023/01/29 05:42:48;;;;;;;37.92;24.90;;;;;;;-146.25;96.86;52463.50;2087668;28;38748;-70
2023/01/29 05:43:49;;;;;;;41.05;26.42;;;;;;;-146.25;96.94;52453.34;2095384;28;39534;-70
2023/01/29 05:44:51;;;;;;;42.47;26.17;;;;;;;-146.25;97.52;52497.97;2097019;28;20045;-71
2023/01/29 05:45:59;;;;;;;44.42;27.83;;;;;;;-146.25;97.58;52437.13;2095784;28;41259;-71
2023/01/29 05:47:03;;;;;;;44.08;25.85;;;;;;;-146.25;98.21;52445.25;2096272;28;37223;-69